Time;durP1;ratioP1;P1;durP2;ratioP2;P2;SDS_P1;SDS_P2;PMS_P1;PMS_P2;Temp;Humidity;BMP_temperature;BMP_pressure;BME280_temperature;BME280_humidity;BME280_pressure;Samples;Min_cycle;Max_cycle;Signal;HPM_P1;HPM_P2
2022/06/30 00:00:34;;;;;;;11.63;4.63;;;;;;;25.05;61.99;100529.97;2110537;28;20083;-73
2022/06/30 00:01:57;;;;;;;8.18;3.33;;;;;;;25.04;62.03;100530.94;2101830;28;20103;-74
2022/06/30 00:03:19;;;;;;;12.88;3.20;;;;;;;25.02;62.30;100527.41;2110703;28;20079;-73
2022/06/30 00:04:42;;;;;;;8.90;3.97;;;;;;;25.02;62.14;100533.69;2113440;28;20047;-73
2022/06/30 00:06:05;;;;;;;11.05;4.18;;;;;;;25.02;62.49;100533.69;2107828;28;20043;-74
2022/06/30 00:07:27;;;;;;;11.25;3.85;;;;;;;25.02;62.62;100520.19;2119134;27;20065;-74
2022/06/30 00:08:48;;;;;;;14.98;4.03;;;;;;;25.01;62.43;100518.44;2107703;28;20145;-74
2022/06/30 00:10:11;;;;;;;6.50;3.60;;;;;;;25.01;62.44;100528.34;2101517;28;20578;-73
2022/06/30 00:11:33;;;;;;;8.10;3.58;;;;;;;25.00;62.74;100524.81;2093844;28;20052;-74
2022/06/30 00:12:56;;;;;;;8.80;3.40;;;;;;;25.01;62.66;100525.66;2098733;28;20052;-73
2022/06/30 00:14:19;;;;;;;8.43;3.47;;;;;;;24.99;62.69;100522.19;2094315;28;20052;-74
2022/06/30 00:15:40;;;;;;;10.82;3.28;;;;;;;24.99;62.58;100527.56;2105259;27;20056;-74
2022/06/30 00:17:03;;;;;;;11.20;4.85;;;;;;;24.99;62.58;100527.56;2105339;28;20040;-73
2022/06/30 00:18:25;;;;;;;10.45;3.33;;;;;;;25.00;62.77;100534.75;2098225;28;20113;-74
2022/06/30 00:19:48;;;;;;;10.35;3.80;;;;;;;25.02;62.81;100527.41;2110617;28;20104;-73
2022/06/30 00:21:11;;;;;;;8.48;3.05;;;;;;;25.00;62.68;100530.22;2109067;28;20104;-74
2022/06/30 00:22:32;;;;;;;9.65;3.10;;;;;;;24.99;62.89;100531.16;2108261;28;20070;-73
2022/06/30 00:23:55;;;;;;;9.77;3.33;;;;;;;25.00;62.71;100532.03;2106067;28;20092;-74
2022/06/30 00:25:17;;;;;;;10.15;3.72;;;;;;;24.99;62.86;100531.16;2105131;28;20764;-73
2022/06/30 00:26:40;;;;;;;10.90;4.38;;;;;;;24.99;62.78;100531.16;2102372;28;20396;-74
2022/06/30 00:28:02;;;;;;;11.77;3.90;;;;;;;24.99;63.00;100531.16;2100766;28;20048;-73
2022/06/30 00:29:24;;;;;;;10.45;3.45;;;;;;;24.99;62.85;100539.25;2107799;28;20040;-74
2022/06/30 00:30:46;;;;;;;11.02;3.80;;;;;;;24.99;62.80;100538.38;2113078;27;20046;-74
2022/06/30 00:32:08;;;;;;;9.73;3.22;;;;;;;24.99;63.07;100530.28;2098016;28;20047;-73
2022/06/30 00:33:30;;;;;;;;;;;;;;;24.97;63.26;100538.44;2098544;28;20059;-73
2022/06/30 00:34:55;;;;;;;11.95;4.38;;;;;;;24.95;63.20;100524.13;2103643;28;19924;-73
2022/06/30 00:36:18;;;;;;;13.82;5.05;;;;;;;24.95;63.29;100529.53;2101207;28;20044;-73
2022/06/30 00:37:40;;;;;;;11.52;3.83;;;;;;;24.95;62.91;100525.94;2105555;28;20109;-73
2022/06/30 00:39:02;;;;;;;9.35;3.83;;;;;;;24.96;63.30;100527.72;2107680;28;20511;-74
2022/06/30 00:40:25;;;;;;;12.85;3.33;;;;;;;24.95;63.34;100531.34;2098287;28;20056;-74
2022/06/30 00:41:46;;;;;;;7.35;3.38;;;;;;;24.95;63.01;100524.13;2116331;27;20042;-74
2022/06/30 00:43:10;;;;;;;11.88;4.13;;;;;;;24.95;63.08;100525.94;2113016;28;20052;-73
2022/06/30 00:44:32;;;;;;;17.83;4.20;;;;;;;24.95;63.29;100525.94;2098435;28;20485;-73
2022/06/30 00:45:55;;;;;;;11.38;3.30;;;;;;;24.94;63.39;100518.81;2110067;27;20050;-73
2022/06/30 00:47:16;;;;;;;11.82;3.58;;;;;;;24.93;63.37;100522.47;2112744;28;20624;-73
2022/06/30 00:48:39;;;;;;;8.40;3.45;;;;;;;24.92;63.29;100521.59;2111233;28;20047;-73
2022/06/30 00:50:03;;;;;;;8.73;3.13;;;;;;;24.93;63.60;100523.34;2101384;28;20154;-73
2022/06/30 00:51:25;;;;;;;11.10;3.75;;;;;;;24.91;63.60;100514.44;2094927;28;20059;-73
2022/06/30 00:52:51;;;;;;;11.40;3.60;;;;;;;24.91;63.48;100517.13;2110252;28;20075;-73
2022/06/30 00:54:14;;;;;;;14.45;3.45;;;;;;;24.92;63.51;100526.13;2108210;28;20040;-73
2022/06/30 00:55:36;;;;;;;9.75;3.85;;;;;;;24.91;63.79;100510.84;2110098;28;20043;-74
2022/06/30 00:56:59;;;;;;;8.82;3.60;;;;;;;24.91;63.78;100519.84;2103023;28;20067;-73
2022/06/30 00:58:23;;;;;;;8.75;3.13;;;;;;;24.90;63.62;100526.19;2107086;28;20054;-73
2022/06/30 00:59:48;;;;;;;15.20;3.63;;;;;;;24.91;63.79;100527.94;2096155;28;20055;-73
2022/06/30 01:01:12;;;;;;;5.78;2.65;;;;;;;24.89;63.65;100529.81;2116352;27;20101;-73
2022/06/30 01:02:35;;;;;;;8.20;3.42;;;;;;;24.90;63.79;100522.59;2105399;28;20525;-74
2022/06/30 01:03:57;;;;;;;9.20;3.55;;;;;;;24.88;63.84;100532.56;2105439;28;20110;-73
2022/06/30 01:05:22;;;;;;;7.30;2.58;;;;;;;24.87;63.76;100522.72;2106543;28;20052;-73
2022/06/30 01:06:45;;;;;;;14.07;3.67;;;;;;;24.85;63.83;100519.22;2119270;27;20074;-73
2022/06/30 01:08:06;;;;;;;20.55;4.05;;;;;;;24.84;64.15;100530.97;2106776;28;20048;-73
2022/06/30 01:12:49;;;;;;;11.85;3.20;;;;;;;24.81;64.15;100514.91;2096475;28;20135;-74
2022/06/30 01:14:12;;;;;;;8.80;3.58;;;;;;;24.80;64.01;100522.13;2108730;28;20043;-73
2022/06/30 01:15:35;;;;;;;8.70;3.60;;;;;;;24.80;64.11;100521.25;2106960;28;20088;-73
2022/06/30 01:16:56;;;;;;;10.30;3.22;;;;;;;24.80;64.01;100519.44;2104425;28;20069;-74
2022/06/30 01:18:19;;;;;;;7.30;3.17;;;;;;;24.79;63.93;100527.59;2104288;28;20036;-73
2022/06/30 01:19:51;;;;;;;4.18;2.25;;;;;;;24.80;64.13;100523.97;2102175;28;20044;-74
2022/06/30 01:21:15;;;;;;;10.02;2.88;;;;;;;24.77;64.00;100518.69;2111246;27;20039;-74
2022/06/30 01:22:38;;;;;;;15.27;5.22;;;;;;;24.77;64.06;100518.69;2105712;28;20048;-74
2022/06/30 01:24:00;;;;;;;7.10;3.35;;;;;;;24.76;64.07;100515.09;2106012;28;20146;-74
2022/06/30 01:25:22;;;;;;;12.40;2.88;;;;;;;24.77;64.00;100516.00;2110870;28;20047;-74
2022/06/30 01:26:44;;;;;;;11.18;3.60;;;;;;;24.77;64.25;100522.25;2104471;28;20127;-74
2022/06/30 01:28:07;;;;;;;11.75;3.50;;;;;;;24.76;64.26;100515.09;2103944;28;20052;-74
2022/06/30 01:29:28;;;;;;;8.35;3.22;;;;;;;24.76;64.15;100517.81;2104089;28;20067;-74
2022/06/30 01:30:50;;;;;;;9.27;2.85;;;;;;;24.76;64.18;100519.63;2103381;28;20134;-74
2022/06/30 01:32:12;;;;;;;39.00;4.82;;;;;;;24.76;64.42;100520.50;2100573;28;20083;-73
2022/06/30 01:33:34;;;;;;;10.73;3.83;;;;;;;24.75;64.19;100518.75;2103550;28;20047;-73
2022/06/30 01:34:56;;;;;;;9.43;2.97;;;;;;;24.75;64.06;100521.44;2105588;28;20536;-74
2022/06/30 01:36:18;;;;;;;;;;;;;;;24.75;64.15;100517.88;2102264;28;20043;-73
2022/06/30 01:37:49;;;;;;;6.88;3.08;;;;;;;24.75;63.98;100517.88;2112838;28;19927;-74
2022/06/30 01:39:12;;;;;;;8.93;3.05;;;;;;;24.73;64.04;100526.06;2110160;28;20148;-73
2022/06/30 01:40:36;;;;;;;9.75;2.55;;;;;;;24.73;63.84;100522.50;2101222;28;20098;-73
2022/06/30 01:41:58;;;;;;;6.63;2.92;;;;;;;24.71;63.85;100521.69;2118791;28;20055;-74
2022/06/30 01:43:20;;;;;;;10.05;3.40;;;;;;;24.71;63.71;100521.69;2106533;28;20094;-74
2022/06/30 01:44:43;;;;;;;11.05;3.40;;;;;;;24.72;63.83;100534.25;2118656;28;20658;-73
2022/06/30 01:46:05;;;;;;;8.30;3.17;;;;;;;24.74;63.57;100532.34;2102735;28;20123;-73
2022/06/30 01:47:26;;;;;;;11.40;2.95;;;;;;;24.74;63.51;100527.84;2110160;28;20052;-73
2022/06/30 01:48:49;;;;;;;5.78;2.75;;;;;;;24.74;63.80;100533.22;2103746;28;20431;-74
2022/06/30 01:50:13;;;;;;;10.25;2.60;;;;;;;24.74;63.67;100530.53;2092655;28;20091;-73
2022/06/30 01:51:36;;;;;;;7.05;3.28;;;;;;;24.75;63.56;100534.06;2093702;28;20434;-74
2022/06/30 01:53:01;;;;;;;6.95;2.70;;;;;;;24.75;63.60;100534.06;2089733;28;20795;-74
2022/06/30 01:54:23;;;;;;;8.88;3.38;;;;;;;24.74;63.73;100543.16;2115022;27;20050;-73
2022/06/30 01:55:45;;;;;;;;;;;;;;;24.73;63.82;100536.00;2108124;28;20139;-74
2022/06/30 01:57:06;;;;;;;8.68;3.42;;;;;;;24.71;63.79;100537.88;2105867;28;20470;-74
2022/06/30 01:58:29;;;;;;;10.25;3.33;;;;;;;24.70;63.49;100537.00;2108575;28;20079;-73
2022/06/30 01:59:51;;;;;;;7.03;2.75;;;;;;;24.71;63.69;100532.47;2106777;28;20130;-74
2022/06/30 02:01:13;;;;;;;4.00;2.38;;;;;;;24.69;63.51;100529.84;2110341;28;20043;-73
2022/06/30 02:02:35;;;;;;;9.05;3.50;;;;;;;24.71;63.51;100537.88;2112688;28;20126;-74
2022/06/30 02:04:46;;;;;;;8.38;3.10;;;;;;;24.70;63.76;100533.41;2108634;28;20060;-73
2022/06/30 02:05:41;;;;;;;8.02;2.78;;;;;;;24.69;63.61;100537.94;2104259;28;20142;-74
2022/06/30 02:07:02;;;;;;;8.43;3.00;;;;;;;24.70;63.59;100546.91;2106082;28;20052;-74
2022/06/30 02:08:26;;;;;;;10.70;3.28;;;;;;;24.69;63.74;100551.44;2104278;28;20036;-73
2022/06/30 02:09:51;;;;;;;10.27;3.30;;;;;;;24.69;63.64;100539.75;2092185;28;20060;-73
2022/06/30 02:11:13;;;;;;;7.97;3.20;;;;;;;24.68;63.88;100549.69;2101574;28;20040;-74
2022/06/30 02:12:47;;;;;;;9.50;3.58;;;;;;;24.66;63.58;100538.09;2101360;28;20491;-74
2022/06/30 02:14:10;;;;;;;8.07;3.13;;;;;;;24.66;63.87;100546.19;2105080;28;21216;-73
2022/06/30 02:15:36;;;;;;;10.57;3.03;;;;;;;24.66;63.64;100550.72;2108175;28;20720;-73
2022/06/30 02:16:57;;;;;;;13.38;3.42;;;;;;;24.65;63.81;100546.25;2107598;28;20069;-74
2022/06/30 02:18:20;;;;;;;7.22;2.95;;;;;;;24.62;63.90;100550.84;2109135;28;20032;-73
2022/06/30 02:19:41;;;;;;;10.90;2.92;;;;;;;24.61;63.72;100545.53;2102263;28;20139;-73
2022/06/30 02:21:04;;;;;;;7.82;3.00;;;;;;;24.59;63.98;100545.59;2109981;28;20055;-74
2022/06/30 02:22:25;;;;;;;8.65;3.05;;;;;;;24.58;63.75;100542.97;2108882;28;20075;-74
2022/06/30 02:23:51;;;;;;;12.65;2.70;;;;;;;24.57;63.82;100546.59;2086795;28;20881;-73
2022/06/30 02:25:12;;;;;;;3.90;1.73;;;;;;;24.54;63.89;100530.56;2100347;28;20057;-73
2022/06/30 02:26:35;;;;;;;8.27;2.70;;;;;;;24.53;63.91;100547.72;2102700;28;20075;-73
2022/06/30 02:27:57;;;;;;;6.38;2.75;;;;;;;24.53;63.91;100542.31;2100619;28;20078;-74
2022/06/30 02:29:19;;;;;;;8.68;3.03;;;;;;;24.50;64.10;100546.00;2117415;28;20047;-74
2022/06/30 02:30:41;;;;;;;11.85;4.43;;;;;;;24.50;64.05;100540.59;2108444;28;20047;-74
2022/06/30 02:32:03;;;;;;;8.43;2.92;;;;;;;24.50;63.82;100539.72;2094094;28;20539;-74
2022/06/30 02:33:26;;;;;;;8.05;2.90;;;;;;;24.47;64.17;100540.75;2104221;28;20554;-73
2022/06/30 02:34:48;;;;;;;8.68;3.25;;;;;;;24.45;63.96;100539.06;2093229;28;20400;-74
2022/06/30 02:36:10;;;;;;;6.63;2.75;;;;;;;24.45;64.18;100542.66;2101202;28;20040;-73
2022/06/30 02:37:32;;;;;;;8.10;2.78;;;;;;;24.45;64.15;100537.25;2106620;28;20075;-74
2022/06/30 02:38:55;;;;;;;10.60;3.15;;;;;;;24.46;63.89;100532.72;2102422;28;20047;-73
2022/06/30 02:40:19;;;;;;;8.63;2.70;;;;;;;24.45;63.81;100534.56;2119180;27;20043;-74
2022/06/30 02:41:40;;;;;;;9.18;3.38;;;;;;;24.45;63.56;100534.56;2099603;28;20413;-74
2022/06/30 02:43:02;;;;;;;8.60;2.95;;;;;;;24.44;63.38;100535.50;2114048;27;20123;-74
2022/06/30 02:44:24;;;;;;;6.88;2.97;;;;;;;24.43;63.47;100528.34;2106949;28;20063;-74
2022/06/30 02:45:46;;;;;;;9.32;3.03;;;;;;;24.43;63.61;100538.25;2114174;27;20463;-74
2022/06/30 02:47:08;;;;;;;11.10;4.15;;;;;;;24.41;63.36;100534.78;2114312;28;20455;-74
2022/06/30 02:48:31;;;;;;;9.20;3.53;;;;;;;24.41;63.58;100526.66;2101184;28;20048;-73
2022/06/30 02:49:52;;;;;;;7.22;2.65;;;;;;;24.41;63.56;100524.84;2100502;28;20539;-74
2022/06/30 02:51:15;;;;;;;9.18;3.40;;;;;;;24.43;63.68;100528.34;2097105;28;20048;-73
2022/06/30 02:52:38;;;;;;;6.38;2.80;;;;;;;24.44;63.69;100527.41;2108775;27;20738;-73
2022/06/30 02:54:01;;;;;;;9.05;3.00;;;;;;;24.44;63.60;100529.22;2112161;28;20144;-73
2022/06/30 02:55:24;;;;;;;6.72;2.70;;;;;;;24.43;63.84;100528.34;2105677;28;20051;-74
2022/06/30 02:56:49;;;;;;;6.95;2.90;;;;;;;24.43;63.59;100531.03;2102584;28;20062;-74
2022/06/30 02:58:12;;;;;;;9.85;2.95;;;;;;;24.41;63.60;100530.25;2092619;28;20119;-74
2022/06/30 02:59:33;;;;;;;10.25;3.10;;;;;;;24.41;63.88;100529.38;2119532;27;20104;-73
2022/06/30 03:00:55;;;;;;;11.35;3.05;;;;;;;24.40;63.86;100530.31;2106167;28;20059;-74
2022/06/30 03:02:18;;;;;;;12.75;3.05;;;;;;;24.39;63.99;100532.13;2102848;28;20453;-74
2022/06/30 03:03:41;;;;;;;10.13;3.17;;;;;;;24.39;63.94;100537.53;2098052;28;20134;-74
2022/06/30 03:05:03;;;;;;;8.88;3.05;;;;;;;24.39;64.09;100536.66;2099889;28;20122;-74
2022/06/30 03:06:26;;;;;;;12.75;3.17;;;;;;;24.37;64.28;100528.63;2117469;27;20592;-74
2022/06/30 03:07:50;;;;;;;11.75;3.05;;;;;;;24.37;64.13;100534.00;2103411;28;20400;-74
2022/06/30 03:09:14;;;;;;;7.13;3.53;;;;;;;24.39;64.33;100532.13;2098714;28;20053;-74
2022/06/30 03:10:36;;;;;;;12.63;3.10;;;;;;;24.39;64.44;100542.94;2108989;28;20571;-75
2022/06/30 03:11:57;;;;;;;10.32;4.18;;;;;;;24.39;64.35;100540.22;2105565;28;20068;-74
2022/06/30 03:13:20;;;;;;;14.90;3.35;;;;;;;24.40;64.54;100536.59;2110430;28;20056;-74
2022/06/30 03:14:42;;;;;;;8.38;2.92;;;;;;;24.41;64.76;100535.66;2110940;28;20134;-74
2022/06/30 03:16:04;;;;;;;9.57;3.53;;;;;;;24.40;64.68;100547.38;2111346;28;20168;-74
2022/06/30 03:17:26;;;;;;;;;;;;;;;24.39;64.79;100542.94;2107187;28;20142;-74
2022/06/30 03:18:49;;;;;;;12.35;4.15;;;;;;;24.40;64.76;100538.41;2110091;28;20063;-74
2022/06/30 03:20:12;;;;;;;10.93;3.08;;;;;;;24.43;64.79;100546.34;2109710;28;20130;-74
2022/06/30 03:21:34;;;;;;;9.60;2.97;;;;;;;24.48;64.75;100547.88;2105409;28;20055;-74
2022/06/30 03:22:57;;;;;;;16.17;3.35;;;;;;;24.53;64.72;100561.19;2102742;28;20558;-74
2022/06/30 03:24:21;;;;;;;11.73;4.13;;;;;;;24.57;64.96;100550.19;2107752;28;20143;-74
2022/06/30 03:25:44;;;;;;;8.82;3.20;;;;;;;24.59;64.96;100545.59;2106522;28;20168;-74
2022/06/30 03:27:06;;;;;;;11.13;3.00;;;;;;;24.64;65.04;100553.47;2117854;27;20178;-74
2022/06/30 03:28:28;;;;;;;7.03;2.83;;;;;;;24.72;64.93;100561.25;2107469;28;20079;-74
2022/06/30 03:29:50;;;;;;;11.18;2.83;;;;;;;24.78;64.77;100561.84;2118641;27;20631;-74
2022/06/30 03:31:13;;;;;;;9.05;3.35;;;;;;;24.85;64.42;100557.91;2107795;28;20073;-73
2022/06/30 03:32:35;;;;;;;12.10;3.92;;;;;;;24.92;64.13;100561.22;2108125;28;20054;-74
2022/06/30 03:33:59;;;;;;;9.32;3.08;;;;;;;24.99;64.23;100562.69;2105118;28;20039;-74
2022/06/30 03:35:20;;;;;;;8.98;2.70;;;;;;;25.08;63.94;100564.06;2107679;28;20052;-74
2022/06/30 03:36:43;;;;;;;8.77;3.28;;;;;;;25.15;63.81;100571.81;2111029;28;20043;-74
2022/06/30 03:38:06;;;;;;;9.98;3.30;;;;;;;25.24;63.48;100557.00;2111336;28;20032;-74
2022/06/30 03:39:30;;;;;;;9.50;3.30;;;;;;;25.32;62.94;100569.19;2105371;28;20076;-74
2022/06/30 03:40:53;;;;;;;7.43;2.85;;;;;;;25.38;62.98;100563.50;2102362;28;20512;-74
2022/06/30 03:42:15;;;;;;;7.13;3.22;;;;;;;25.46;62.68;100556.84;2101127;28;20131;-74
2022/06/30 03:43:38;;;;;;;15.25;2.88;;;;;;;25.53;62.25;100567.28;2104383;28;20436;-74
2022/06/30 03:44:59;;;;;;;7.65;2.50;;;;;;;25.59;61.94;100558.91;2110456;28;20654;-74
2022/06/30 03:46:21;;;;;;;9.52;2.63;;;;;;;25.66;62.19;100557.66;2111078;28;20054;-73
2022/06/30 03:47:44;;;;;;;7.22;2.40;;;;;;;25.74;61.56;100563.50;2113817;28;20078;-74
2022/06/30 03:49:06;;;;;;;10.18;2.35;;;;;;;25.80;61.25;100565.91;2108517;28;20047;-73
2022/06/30 03:50:29;;;;;;;7.65;2.67;;;;;;;25.93;61.21;100563.47;2104604;28;20785;-73
2022/06/30 03:51:50;;;;;;;9.07;2.38;;;;;;;26.01;60.60;100552.25;2100263;28;20048;-73
2022/06/30 03:53:13;;;;;;;6.40;2.50;;;;;;;26.10;60.41;100557.19;2109989;28;20043;-74
2022/06/30 03:54:38;;;;;;;10.90;2.80;;;;;;;26.24;60.12;100559.19;2110712;28;20120;-74
2022/06/30 03:55:59;;;;;;;5.10;3.03;;;;;;;26.33;59.77;100567.72;2105155;28;20142;-74
2022/06/30 03:57:22;;;;;;;3.10;1.45;;;;;;;26.41;59.15;100560.06;2108032;28;20056;-74
2022/06/30 03:58:44;;;;;;;5.68;2.35;;;;;;;26.46;59.08;100560.69;2110942;28;20130;-73
2022/06/30 04:00:25;;;;;;;4.47;2.28;;;;;;;26.58;58.65;100554.63;2117222;27;20405;-73
2022/06/30 04:01:48;;;;;;;9.57;2.72;;;;;;;26.71;58.28;100560.28;2108803;28;20083;-73
2022/06/30 04:03:11;;;;;;;8.30;2.30;;;;;;;26.83;57.89;100556.91;2109145;28;20097;-73
2022/06/30 04:04:32;;;;;;;6.38;2.30;;;;;;;26.96;57.51;100557.13;2108483;28;20048;-73
2022/06/30 04:05:55;;;;;;;6.05;2.65;;;;;;;27.07;57.00;100561.94;2108001;28;20185;-73
2022/06/30 04:07:17;;;;;;;7.40;2.30;;;;;;;27.14;56.77;100550.66;2116538;27;20051;-73
2022/06/30 04:08:40;;;;;;;8.98;2.40;;;;;;;27.24;56.71;100556.47;2109287;28;20066;-73
2022/06/30 04:10:01;;;;;;;6.13;2.47;;;;;;;27.33;56.08;100556.78;2111772;28;20056;-72
2022/06/30 04:11:23;;;;;;;5.65;1.48;;;;;;;27.44;56.13;100558.03;2106728;28;20526;-73
2022/06/30 04:12:45;;;;;;;8.30;2.42;;;;;;;27.53;55.95;100566.53;2108482;28;20044;-73
2022/06/30 04:14:07;;;;;;;12.00;2.25;;;;;;;27.60;55.57;100554.38;2091053;28;20045;-73
2022/06/30 04:15:32;;;;;;;7.07;2.38;;;;;;;27.72;55.39;100560.91;2101959;28;20055;-73
2022/06/30 04:16:54;;;;;;;8.93;2.40;;;;;;;27.79;55.13;100550.56;2103386;28;20063;-73
2022/06/30 04:18:17;;;;;;;8.15;2.30;;;;;;;27.86;54.91;100551.97;2109495;28;20082;-73
2022/06/30 04:19:38;;;;;;;6.82;2.38;;;;;;;27.96;54.86;100558.59;2103076;28;20828;-73
2022/06/30 04:21:01;;;;;;;6.32;2.10;;;;;;;28.09;54.58;100560.47;2111374;28;20519;-73
2022/06/30 04:22:22;;;;;;;9.50;2.90;;;;;;;28.25;54.38;100560.44;2115970;28;20067;-73
2022/06/30 04:23:45;;;;;;;4.18;2.20;;;;;;;28.38;54.13;100555.16;2103398;28;20098;-73
2022/06/30 04:25:08;;;;;;;7.22;2.63;;;;;;;28.54;53.91;100567.72;2109157;28;20059;-73
2022/06/30 04:26:30;;;;;;;9.27;2.58;;;;;;;28.70;53.26;100555.84;2113951;27;20129;-73
2022/06/30 04:27:58;;;;;;;9.13;2.20;;;;;;;28.80;52.94;100563.38;2103163;28;20132;-72
2022/06/30 04:29:21;;;;;;;6.55;2.00;;;;;;;28.92;52.58;100562.59;2107528;28;20135;-73
2022/06/30 04:32:38;;;;;;;7.13;2.92;;;;;;;29.28;51.68;100562.06;2098401;28;20140;-73
2022/06/30 04:34:00;;;;;;;5.65;1.77;;;;;;;29.49;51.48;100561.66;2110179;28;20055;-73
2022/06/30 04:35:23;;;;;;;6.80;2.15;;;;;;;29.64;50.79;100552.50;2105779;28;20036;-73
2022/06/30 04:36:46;;;;;;;8.40;2.38;;;;;;;29.80;50.37;100555.06;2107524;28;20071;-73
2022/06/30 04:38:08;;;;;;;6.18;2.72;;;;;;;30.00;50.18;100568.22;2111731;28;20142;-73
2022/06/30 04:39:31;;;;;;;10.07;2.55;;;;;;;30.20;49.44;100555.94;2106774;28;20036;-73
2022/06/30 04:42:32;;;;;;;9.75;2.30;;;;;;;30.46;48.44;100563.16;2103073;28;20036;-73
2022/06/30 04:43:56;;;;;;;10.15;2.33;;;;;;;30.66;47.99;100567.25;2105901;28;20052;-73
2022/06/30 04:45:18;;;;;;;6.82;1.88;;;;;;;30.89;47.30;100571.94;2107525;28;20128;-74
2022/06/30 04:46:42;;;;;;;13.60;2.28;;;;;;;31.08;46.53;100572.41;2108458;28;20491;-74
2022/06/30 04:48:04;;;;;;;6.82;2.03;;;;;;;31.16;46.13;100570.00;2106996;28;20131;-73
2022/06/30 04:49:27;;;;;;;8.35;2.17;;;;;;;31.27;45.70;100574.66;2100468;28;20143;-73
2022/06/30 04:50:50;;;;;;;8.50;2.65;;;;;;;31.42;45.25;100568.06;2116948;28;20043;-73
2022/06/30 04:52:13;;;;;;;7.32;2.00;;;;;;;31.61;44.96;100582.13;2096774;28;20060;-74
2022/06/30 04:53:36;;;;;;;4.72;1.67;;;;;;;31.78;44.50;100578.09;2103146;28;20056;-74
2022/06/30 04:54:57;;;;;;;7.40;1.90;;;;;;;32.01;44.04;100577.25;2095340;28;20049;-74
2022/06/30 04:56:20;;;;;;;5.57;1.90;;;;;;;32.19;43.84;100583.16;2097820;28;20093;-73
2022/06/30 04:57:42;;;;;;;6.55;2.22;;;;;;;32.33;43.51;100580.25;2103790;28;20075;-73
2022/06/30 04:59:05;;;;;;;10.52;2.40;;;;;;;32.49;43.37;100576.31;2115954;28;20075;-73
2022/06/30 05:00:28;;;;;;;6.75;2.13;;;;;;;32.70;43.02;100580.09;2106394;28;20040;-74
2022/06/30 05:01:53;;;;;;;6.60;2.38;;;;;;;32.93;42.59;100576.41;2112276;28;20121;-74
2022/06/30 05:03:16;;;;;;;6.57;2.22;;;;;;;33.09;42.06;100576.88;2104990;28;20040;-74
2022/06/30 05:04:39;;;;;;;9.05;1.90;;;;;;;33.17;41.78;100585.34;2102496;28;20048;-74
2022/06/30 05:06:03;;;;;;;8.43;2.25;;;;;;;33.33;41.43;100575.94;2102693;28;20041;-73
2022/06/30 05:07:24;;;;;;;9.30;2.60;;;;;;;33.43;40.86;100574.16;2114108;28;20114;-74
2022/06/30 05:08:48;;;;;;;10.10;1.95;;;;;;;33.49;40.66;100579.13;2108375;28;20052;-74
2022/06/30 05:10:11;;;;;;;8.50;1.83;;;;;;;33.53;40.20;100575.16;2100219;28;20159;-74
2022/06/30 05:11:35;;;;;;;5.43;1.88;;;;;;;33.66;39.67;100575.88;2100512;28;20048;-74
2022/06/30 05:12:57;;;;;;;7.05;2.05;;;;;;;33.77;38.86;100564.91;2109375;28;20690;-75
2022/06/30 05:14:19;;;;;;;6.32;1.95;;;;;;;33.75;38.67;100572.38;2104265;28;20491;-75
2022/06/30 05:15:42;;;;;;;7.60;2.05;;;;;;;33.87;38.47;100582.28;2105566;28;20048;-74
2022/06/30 05:17:06;;;;;;;12.25;1.90;;;;;;;34.05;38.33;100573.53;2101089;28;20052;-75
2022/06/30 05:18:29;;;;;;;4.97;1.88;;;;;;;34.17;38.16;100565.13;2102121;28;20071;-74
2022/06/30 05:19:51;;;;;;;7.18;1.83;;;;;;;34.23;38.01;100580.19;2099822;28;20052;-75
2022/06/30 05:21:14;;;;;;;7.30;1.90;;;;;;;34.28;38.17;100573.31;2101804;28;20059;-75
2022/06/30 05:22:35;;;;;;;8.63;2.15;;;;;;;34.42;38.00;100574.84;2104702;28;20044;-75
2022/06/30 05:27:17;;;;;;;5.38;1.70;;;;;;;34.41;37.72;100567.63;2095592;28;20048;-75
2022/06/30 05:28:40;;;;;;;9.20;2.13;;;;;;;34.60;37.22;100570.50;2102647;28;20110;-76
2022/06/30 05:30:03;;;;;;;6.63;2.17;;;;;;;34.73;36.99;100581.28;2102697;28;20078;-75
2022/06/30 05:31:25;;;;;;;7.88;2.05;;;;;;;34.88;36.76;100579.94;2111012;28;20048;-76
2022/06/30 05:32:49;;;;;;;7.13;1.90;;;;;;;34.88;36.96;100577.19;2103441;28;20064;-75
2022/06/30 05:34:12;;;;;;;9.25;3.05;;;;;;;34.91;37.02;100578.81;2094463;28;20523;-76
2022/06/30 05:35:35;;;;;;;8.35;1.92;;;;;;;35.05;37.01;100578.44;2108000;28;20051;-75
2022/06/30 05:36:57;;;;;;;5.40;1.90;;;;;;;35.20;36.53;100566.06;2105073;28;20493;-75
2022/06/30 05:38:20;;;;;;;10.45;1.80;;;;;;;35.16;36.50;100579.22;2105364;28;20078;-75
2022/06/30 05:39:42;;;;;;;7.22;2.22;;;;;;;35.23;36.46;100582.31;2102277;28;20113;-75
2022/06/30 05:41:05;;;;;;;5.20;2.15;;;;;;;35.36;36.17;100584.81;2102540;28;20139;-75
2022/06/30 05:42:28;;;;;;;8.75;1.70;;;;;;;35.46;35.97;100588.44;2108521;28;20047;-75
2022/06/30 05:43:52;;;;;;;9.55;2.00;;;;;;;35.56;35.71;100586.59;2104532;28;20313;-75
2022/06/30 05:45:15;;;;;;;8.43;1.92;;;;;;;35.76;35.04;100588.41;2110910;28;20046;-75
2022/06/30 05:46:37;;;;;;;8.45;1.90;;;;;;;35.94;34.96;100591.31;2113097;28;20048;-76
2022/06/30 05:48:02;;;;;;;13.15;3.08;;;;;;;36.04;35.04;100594.09;2104902;28;20048;-76
2022/06/30 05:49:24;;;;;;;5.25;2.28;;;;;;;35.97;35.09;100589.16;2111229;28;20143;-76
2022/06/30 05:50:47;;;;;;;5.40;2.08;;;;;;;35.92;35.15;100598.84;2096834;28;20063;-75
2022/06/30 05:52:10;;;;;;;8.73;1.98;;;;;;;35.88;35.69;100605.66;2108313;28;20070;-75
2022/06/30 05:53:33;;;;;;;9.45;2.53;;;;;;;35.84;35.65;100591.31;2105080;28;20059;-75
2022/06/30 05:54:56;;;;;;;6.97;1.88;;;;;;;35.80;35.65;100602.72;2105135;28;20138;-76
2022/06/30 05:56:19;;;;;;;4.57;1.92;;;;;;;35.84;35.63;100610.53;2109508;28;20083;-75
2022/06/30 05:57:55;;;;;;;11.57;2.67;;;;;;;35.99;34.92;100602.75;2105206;28;20048;-76
2022/06/30 05:59:16;;;;;;;6.13;2.00;;;;;;;36.00;34.69;100598.13;2104533;28;20105;-75
2022/06/30 06:00:39;;;;;;;6.68;2.13;;;;;;;35.93;34.29;100595.09;2102266;28;20590;-76
2022/06/30 06:02:00;;;;;;;8.77;1.65;;;;;;;35.85;33.95;100601.28;2102428;28;20553;-76
2022/06/30 06:03:24;;;;;;;5.25;2.05;;;;;;;35.93;33.96;100592.34;2102698;28;20078;-76
2022/06/30 06:04:47;;;;;;;3.25;1.50;;;;;;;35.88;33.80;100601.00;2110097;28;20051;-76
2022/06/30 06:06:09;;;;;;;6.95;1.80;;;;;;;35.92;33.73;100607.09;2096955;28;20040;-75
2022/06/30 06:07:31;;;;;;;6.53;2.95;;;;;;;35.97;33.73;100602.06;2108041;28;20040;-76
2022/06/30 06:08:54;;;;;;;5.45;1.88;;;;;;;36.06;33.38;100586.56;2113499;28;20052;-76
2022/06/30 06:10:17;;;;;;;5.10;1.73;;;;;;;36.00;33.63;100607.25;2105003;28;20466;-76
2022/06/30 06:11:39;;;;;;;6.82;1.77;;;;;;;36.02;33.46;100601.63;2109680;27;20146;-76
2022/06/30 06:13:01;;;;;;;9.07;1.73;;;;;;;35.80;33.83;100597.22;2105031;28;20134;-76
2022/06/30 06:14:24;;;;;;;7.07;2.38;;;;;;;35.76;34.05;100602.16;2110681;28;20134;-75
2022/06/30 06:15:46;;;;;;;7.43;2.47;;;;;;;35.84;34.09;100602.28;2104655;28;20133;-75
2022/06/30 06:17:09;;;;;;;3.58;1.70;;;;;;;35.95;34.11;100601.31;2102044;28;20105;-76
2022/06/30 06:18:33;;;;;;;6.05;3.00;;;;;;;36.02;34.17;100596.13;2102236;28;20105;-76
2022/06/30 06:19:55;;;;;;;5.78;2.00;;;;;;;36.14;34.02;100601.31;2093870;28;20094;-76
2022/06/30 06:21:17;;;;;;;5.55;1.80;;;;;;;36.25;33.71;100601.22;2099494;28;20052;-76
2022/06/30 06:22:40;;;;;;;12.60;2.13;;;;;;;36.19;33.88;100603.66;2102065;28;20056;-76
2022/06/30 06:24:03;;;;;;;6.78;1.40;;;;;;;36.19;33.83;100603.66;2101840;28;20071;-76
2022/06/30 06:25:25;;;;;;;8.32;1.85;;;;;;;36.28;33.87;100600.06;2093628;28;20051;-75
2022/06/30 06:26:48;;;;;;;4.40;1.65;;;;;;;36.28;33.76;100598.19;2098998;28;20048;-76
2022/06/30 06:29:50;;;;;;;5.82;1.77;;;;;;;36.10;33.77;100604.53;2104530;28;20051;-76
2022/06/30 06:31:11;;;;;;;8.30;1.88;;;;;;;36.31;33.68;100603.38;2104879;28;20048;-75
2022/06/30 06:32:34;;;;;;;11.27;1.85;;;;;;;36.49;33.66;100610.91;2102375;28;20052;-76
2022/06/30 06:33:58;;;;;;;8.45;1.73;;;;;;;36.59;33.52;100598.84;2093903;28;20048;-76
2022/06/30 06:35:21;;;;;;;9.82;1.80;;;;;;;36.60;33.38;100599.72;2101915;28;20133;-75
2022/06/30 06:36:43;;;;;;;7.63;1.80;;;;;;;36.53;33.41;100593.94;2102459;28;20083;-76